createdAt,value
2023-12-22T00:02:14.736Z,95294.25
2023-12-22T00:04:41.276Z,95297.19
2023-12-22T00:07:07.916Z,95311.97
2023-12-22T00:09:34.459Z,95295.28
2023-12-22T00:12:01.026Z,95285.09
2023-12-22T00:14:27.592Z,95284.72
2023-12-22T00:16:54.188Z,95291.66
2023-12-22T00:19:21.136Z,95301.03
2023-12-22T00:21:47.672Z,95292.97
2023-12-22T00:24:14.383Z,95284.78
2023-12-22T00:26:40.930Z,95276.56
2023-12-22T00:29:07.481Z,95264.56
2023-12-22T00:31:34.023Z,95257.69
2023-12-22T00:34:00.566Z,95250.03
2023-12-22T00:36:27.138Z,95264.06
2023-12-22T00:38:53.715Z,95278.00
2023-12-22T00:41:20.245Z,95287.94
2023-12-22T00:43:46.788Z,95277.84
2023-12-22T00:46:14.902Z,95277.84
2023-12-22T00:48:41.557Z,95275.22
2023-12-22T00:51:08.154Z,95266.50
2023-12-22T00:53:34.709Z,95291.38
2023-12-22T00:56:01.545Z,95284.06
2023-12-22T00:58:28.119Z,95278.81
2023-12-22T01:00:54.566Z,95288.38
2023-12-22T01:03:21.014Z,95284.41
2023-12-22T01:05:47.542Z,95276.81
2023-12-22T01:08:14.102Z,95281.75
2023-12-22T01:10:40.515Z,95301.00
2023-12-22T01:13:06.901Z,95301.00
2023-12-22T01:15:33.272Z,95295.22
2023-12-22T01:17:59.806Z,95285.97
2023-12-22T01:20:26.247Z,95309.66
2023-12-22T01:22:52.733Z,95308.03
2023-12-22T01:25:19.209Z,95320.16
2023-12-22T01:27:45.632Z,95333.25
2023-12-22T01:30:12.187Z,95326.72
2023-12-22T01:32:38.609Z,95338.22
2023-12-22T01:35:05.378Z,95353.44
2023-12-22T01:37:31.743Z,95352.31
2023-12-22T01:39:58.537Z,95368.66
2023-12-22T01:42:25.214Z,95378.47
2023-12-22T01:44:51.746Z,95365.13
2023-12-22T01:47:18.302Z,95375.41
2023-12-22T01:49:44.775Z,95359.63
2023-12-22T01:52:12.396Z,95350.16
2023-12-22T01:54:40.030Z,95358.78
2023-12-22T01:57:07.327Z,95364.13
2023-12-22T01:59:35.697Z,95347.31
2023-12-22T02:02:03.849Z,95358.38
2023-12-22T02:04:32.143Z,95352.13
2023-12-22T02:07:04.252Z,95350.53
2023-12-22T02:09:30.821Z,95363.41
2023-12-22T02:11:57.272Z,95361.09
2023-12-22T02:14:23.900Z,95362.53
2023-12-22T02:17:06.948Z,95342.00
2023-12-22T02:19:33.333Z,95350.88
2023-12-22T02:22:09.645Z,95326.84
2023-12-22T02:24:36.874Z,95359.41
2023-12-22T02:27:28.549Z,95355.16
2023-12-22T02:30:00.593Z,95332.94
2023-12-22T02:32:33.835Z,95324.41
2023-12-22T02:35:06.026Z,95325.91
2023-12-22T02:37:36.718Z,95331.19
2023-12-22T02:40:04.397Z,95325.75
2023-12-22T02:42:32.881Z,95330.31
2023-12-22T02:44:59.783Z,95332.59
2023-12-22T02:47:27.100Z,95314.25
2023-12-22T02:49:53.536Z,95308.69
2023-12-22T02:52:20.035Z,95313.59
2023-12-22T02:54:46.572Z,95316.56
2023-12-22T02:57:12.948Z,95321.44
2023-12-22T02:59:39.884Z,95334.97
2023-12-22T03:02:06.269Z,95317.97
2023-12-22T03:04:32.677Z,95317.97
2023-12-22T03:06:59.264Z,95327.66
2023-12-22T03:09:25.658Z,95339.16
2023-12-22T03:11:52.200Z,95332.59
2023-12-22T03:14:18.719Z,95349.72
2023-12-22T03:16:45.280Z,95334.13
2023-12-22T03:19:12.197Z,95355.13
2023-12-22T03:21:38.890Z,95362.47
2023-12-22T03:24:05.705Z,95373.09
2023-12-22T03:26:32.245Z,95375.84
2023-12-22T03:28:58.831Z,95357.19
2023-12-22T03:31:25.349Z,95353.13
2023-12-22T03:33:52.028Z,95365.91
2023-12-22T03:36:18.596Z,95368.00
2023-12-22T03:38:45.181Z,95374.28
2023-12-22T03:41:11.786Z,95382.78
2023-12-22T03:43:38.465Z,95367.00
2023-12-22T03:46:05.392Z,95367.00
2023-12-22T03:48:31.989Z,95357.53
2023-12-22T03:50:58.708Z,95340.16
2023-12-22T03:53:25.286Z,95349.38
2023-12-22T03:55:51.957Z,95340.34
2023-12-22T03:58:18.709Z,95336.56
2023-12-22T04:00:45.257Z,95348.38
2023-12-22T04:03:11.841Z,95349.03
2023-12-22T04:05:38.510Z,95355.56
2023-12-22T04:08:06.063Z,95362.94
2023-12-22T04:10:32.867Z,95380.16
2023-12-22T04:12:59.463Z,95379.19
2023-12-22T04:15:26.105Z,95389.34
2023-12-22T04:17:52.798Z,95387.22
2023-12-22T04:20:19.649Z,95396.75
2023-12-22T04:22:46.290Z,95392.25
2023-12-22T04:25:12.858Z,95382.81
2023-12-22T04:27:39.370Z,95383.38
2023-12-22T04:30:06.585Z,95379.50
2023-12-22T04:32:33.142Z,95364.97
2023-12-22T04:34:59.799Z,95374.91
2023-12-22T04:37:26.543Z,95376.06
2023-12-22T04:39:53.218Z,95391.50
2023-12-22T04:42:19.962Z,95372.97
2023-12-22T04:44:46.580Z,95379.19
2023-12-22T04:47:13.237Z,95374.94
2023-12-22T04:49:39.978Z,95374.75
2023-12-22T04:52:06.540Z,95372.31
2023-12-22T04:54:33.037Z,95376.91
2023-12-22T04:56:59.662Z,95376.94
2023-12-22T04:59:26.214Z,95386.72
2023-12-22T05:01:52.812Z,95382.34
2023-12-22T05:04:19.475Z,95379.53
2023-12-22T05:06:46.050Z,95384.31
2023-12-22T05:09:12.848Z,95392.22
2023-12-22T05:11:39.405Z,95397.31
2023-12-22T05:14:06.061Z,95414.22
2023-12-22T05:16:32.862Z,95400.41
2023-12-22T05:18:59.826Z,95387.78
2023-12-22T05:21:26.532Z,95399.28
2023-12-22T05:23:53.117Z,95395.81
2023-12-22T05:26:21.216Z,95393.03
2023-12-22T05:28:48.530Z,95398.50
2023-12-22T05:31:15.047Z,95403.75
2023-12-22T05:33:41.625Z,95417.97
2023-12-22T05:36:08.264Z,95421.59
2023-12-22T05:38:38.881Z,95424.00
2023-12-22T05:41:05.857Z,95422.28
2023-12-22T05:43:32.405Z,95418.31
2023-12-22T05:45:58.977Z,95431.13
2023-12-22T05:48:26.565Z,95418.06
2023-12-22T05:50:53.098Z,95420.41
2023-12-22T05:53:19.602Z,95426.31
2023-12-22T05:55:46.171Z,95442.47
2023-12-22T05:58:12.702Z,95451.41
2023-12-22T06:00:39.315Z,95447.06
2023-12-22T06:03:05.823Z,95446.97
2023-12-22T06:05:32.423Z,95444.34
2023-12-22T06:07:59.044Z,95437.34
2023-12-22T06:10:25.652Z,95428.16
2023-12-22T06:12:52.229Z,95427.72
2023-12-22T06:15:18.731Z,95428.56
2023-12-22T06:17:45.271Z,95439.72
2023-12-22T06:20:11.892Z,95445.59
2023-12-22T06:22:38.823Z,95447.16
2023-12-22T06:25:05.844Z,95450.50
2023-12-22T06:27:32.352Z,95445.13
2023-12-22T06:29:58.863Z,95446.53
2023-12-22T06:32:25.779Z,95454.75
2023-12-22T06:34:52.446Z,95457.34
2023-12-22T06:37:19.057Z,95463.69
2023-12-22T06:39:45.570Z,95477.41
2023-12-22T06:42:12.097Z,95486.50
2023-12-22T06:44:39.185Z,95490.94
2023-12-22T06:47:05.859Z,95482.94
2023-12-22T06:49:32.532Z,95482.16
2023-12-22T06:51:59.072Z,95473.13
2023-12-22T06:54:25.669Z,95477.34
2023-12-22T06:56:52.408Z,95476.31
2023-12-22T06:59:19.316Z,95482.47
2023-12-22T07:01:55.477Z,95492.66
2023-12-22T07:05:07.552Z,95488.13
2023-12-22T07:07:36.378Z,95498.72
2023-12-22T07:10:03.703Z,95495.75
2023-12-22T07:12:30.375Z,95501.03
2023-12-22T07:14:57.022Z,95492.13
2023-12-22T07:17:23.702Z,95489.81
2023-12-22T07:19:50.294Z,95492.88
2023-12-22T07:22:16.834Z,95502.38
2023-12-22T07:24:44.549Z,95501.34
2023-12-22T07:27:11.698Z,95505.91
2023-12-22T07:29:38.716Z,95507.88
2023-12-22T07:32:05.832Z,95517.09
2023-12-22T07:34:34.048Z,95520.38
2023-12-22T07:37:06.336Z,95526.25
2023-12-22T07:39:34.068Z,95532.66
2023-12-22T07:42:00.537Z,95532.22
2023-12-22T07:44:26.951Z,95540.22
2023-12-22T07:47:01.221Z,95543.78
2023-12-22T07:49:30.221Z,95544.94
2023-12-22T07:51:57.202Z,95545.53
2023-12-22T07:54:24.535Z,95543.19
2023-12-22T07:56:51.976Z,95551.97
2023-12-22T07:59:26.895Z,95564.34
2023-12-22T08:01:57.784Z,95577.88
2023-12-22T08:04:24.481Z,95585.41
2023-12-22T08:06:51.185Z,95592.53
2023-12-22T08:09:17.656Z,95594.28
2023-12-22T08:11:44.268Z,95605.78
2023-12-22T08:14:10.715Z,95619.44
2023-12-22T08:16:37.245Z,95636.53
2023-12-22T08:19:03.848Z,95639.66
2023-12-22T08:21:39.263Z,95636.66
2023-12-22T08:24:13.715Z,95630.56
2023-12-22T08:26:42.653Z,95638.38
2023-12-22T08:29:09.051Z,95639.56
2023-12-22T08:31:35.655Z,95657.09
2023-12-22T08:34:02.317Z,95660.47
2023-12-22T08:36:28.751Z,95650.72
2023-12-22T08:38:55.444Z,95659.56
2023-12-22T08:41:22.301Z,95658.91
2023-12-22T08:43:48.908Z,95661.66
2023-12-22T08:46:15.489Z,95656.78
2023-12-22T08:48:42.150Z,95668.28
2023-12-22T08:51:08.882Z,95670.66
2023-12-22T08:53:35.438Z,95670.72
2023-12-22T08:56:02.553Z,95657.00
2023-12-22T08:58:29.257Z,95660.91
2023-12-22T09:00:55.855Z,95664.94
2023-12-22T09:03:22.388Z,95665.16
2023-12-22T09:05:49.072Z,95663.63
2023-12-22T09:08:15.868Z,95675.03
2023-12-22T09:10:42.522Z,95681.81
2023-12-22T09:13:09.106Z,95672.00
2023-12-22T09:15:35.778Z,95678.16
2023-12-22T09:18:02.501Z,95684.03
2023-12-22T09:20:29.170Z,95699.63
2023-12-22T09:22:55.890Z,95686.53
2023-12-22T09:25:24.762Z,95680.25
2023-12-22T09:27:51.525Z,95682.88
2023-12-22T09:30:18.309Z,95693.25
2023-12-22T09:32:45.267Z,95698.03
2023-12-22T09:35:12.164Z,95699.00
2023-12-22T09:37:39.202Z,95703.75
2023-12-22T09:40:06.553Z,95708.22
2023-12-22T09:42:33.119Z,95707.50
2023-12-22T09:45:03.451Z,95703.38
2023-12-22T09:47:33.797Z,95701.53
2023-12-22T09:50:01.037Z,95696.22
2023-12-22T09:52:30.264Z,95694.47
2023-12-22T09:54:57.842Z,95691.16
2023-12-22T09:57:28.683Z,95682.75
2023-12-22T09:59:56.892Z,95689.19
2023-12-22T10:02:26.984Z,95682.13
2023-12-22T10:04:53.971Z,95679.34
2023-12-22T10:07:21.861Z,95679.38
2023-12-22T10:09:49.067Z,95662.88
2023-12-22T10:12:16.395Z,95674.97
2023-12-22T10:14:44.083Z,95670.31
2023-12-22T10:17:10.796Z,95665.47
2023-12-22T10:19:37.743Z,95663.56
2023-12-22T10:22:04.337Z,95659.69
2023-12-22T10:24:38.835Z,95652.97
2023-12-22T10:27:05.864Z,95651.09
2023-12-22T10:29:32.434Z,95650.09
2023-12-22T10:31:59.067Z,95645.31
2023-12-22T10:34:25.628Z,95630.00
2023-12-22T10:36:52.478Z,95638.38
2023-12-22T10:39:21.517Z,95617.06
2023-12-22T10:41:49.426Z,95606.50
2023-12-22T10:44:16.499Z,95613.09
2023-12-22T10:46:42.963Z,95604.38
2023-12-22T10:49:10.021Z,95595.31
2023-12-22T10:51:36.622Z,95597.13
2023-12-22T10:54:06.943Z,95608.06
2023-12-22T10:56:35.163Z,95610.38
2023-12-22T10:59:03.477Z,95607.75
2023-12-22T11:01:30.590Z,95599.38
2023-12-22T11:04:02.270Z,95594.22
2023-12-22T11:06:31.085Z,95597.19
2023-12-22T11:08:58.664Z,95597.31
2023-12-22T11:11:31.162Z,95600.47
2023-12-22T11:13:58.288Z,95596.53
2023-12-22T11:16:25.617Z,95593.59
2023-12-22T11:18:56.150Z,95586.69
2023-12-22T11:21:24.768Z,95588.06
2023-12-22T11:23:52.621Z,95600.13
2023-12-22T11:26:20.536Z,95600.59
2023-12-22T11:28:50.793Z,95590.34
2023-12-22T11:31:18.457Z,95592.50
2023-12-22T11:33:58.459Z,95593.72
2023-12-22T11:36:32.458Z,95593.22
2023-12-22T11:39:00.055Z,95592.31
2023-12-22T11:41:31.550Z,95587.47
2023-12-22T11:44:00.470Z,95580.19
2023-12-22T11:46:27.178Z,95584.09
2023-12-22T11:48:54.196Z,95583.69
2023-12-22T11:51:20.989Z,95581.22
2023-12-22T11:53:47.627Z,95573.59
2023-12-22T11:56:14.266Z,95562.31
2023-12-22T11:58:44.953Z,95564.06
2023-12-22T12:01:13.783Z,95555.81
2023-12-22T12:03:49.040Z,95554.03
2023-12-22T12:06:18.036Z,95560.19
2023-12-22T12:08:44.730Z,95566.19
2023-12-22T12:11:11.419Z,95556.88
2023-12-22T12:13:43.722Z,95555.22
2023-12-22T12:16:15.873Z,95553.41
2023-12-22T12:18:42.808Z,95555.59
2023-12-22T12:21:12.030Z,95549.44
2023-12-22T12:23:39.023Z,95548.59
2023-12-22T12:26:09.794Z,95554.47
2023-12-22T12:28:37.503Z,95542.06
2023-12-22T12:31:06.987Z,95540.03
2023-12-22T12:33:36.049Z,95544.94
2023-12-22T12:36:04.155Z,95533.31
2023-12-22T12:39:01.720Z,95551.53
2023-12-22T12:41:35.978Z,95552.44
2023-12-22T12:44:08.174Z,95535.09
2023-12-22T12:46:36.550Z,95548.50
2023-12-22T12:49:13.281Z,95541.88
2023-12-22T12:51:42.772Z,95534.63
2023-12-22T12:54:11.301Z,95538.59
2023-12-22T12:56:42.565Z,95548.50
2023-12-22T12:59:14.529Z,95551.53
2023-12-22T13:01:42.153Z,95552.28
2023-12-22T13:04:08.981Z,95543.81
2023-12-22T13:06:36.169Z,95532.53
2023-12-22T13:09:08.274Z,95538.69
2023-12-22T13:11:41.374Z,95540.97
2023-12-22T13:14:08.649Z,95552.97
2023-12-22T13:16:36.052Z,95535.66
2023-12-22T13:19:04.097Z,95533.66
2023-12-22T13:21:34.018Z,95535.28
2023-12-22T13:24:10.623Z,95542.47
2023-12-22T13:26:37.868Z,95531.09
2023-12-22T13:29:05.267Z,95533.97
2023-12-22T13:31:38.936Z,95536.66
2023-12-22T13:34:15.173Z,95535.38
2023-12-22T13:36:42.799Z,95531.84
2023-12-22T13:39:10.762Z,95523.97
2023-12-22T13:41:43.164Z,95541.69
2023-12-22T13:44:10.230Z,95545.72
2023-12-22T13:46:37.530Z,95542.50
2023-12-22T13:49:05.494Z,95542.31
2023-12-22T13:51:51.885Z,95547.59
2023-12-22T13:54:20.468Z,95542.09
2023-12-22T13:56:50.394Z,95533.25
2023-12-22T13:59:18.249Z,95526.34
2023-12-22T14:01:47.009Z,95531.59
2023-12-22T14:04:15.212Z,95538.19
2023-12-22T14:06:42.359Z,95546.84
2023-12-22T14:09:11.150Z,95549.34
2023-12-22T14:11:38.355Z,95547.38
2023-12-22T14:14:06.043Z,95560.16
2023-12-22T14:16:32.932Z,95546.38
2023-12-22T14:18:59.733Z,95546.22
2023-12-22T14:21:26.489Z,95556.91
2023-12-22T14:23:53.385Z,95559.53
2023-12-22T14:26:20.046Z,95562.97
2023-12-22T14:28:46.828Z,95558.53
2023-12-22T14:31:13.281Z,95566.56
2023-12-22T14:33:39.979Z,95562.16
2023-12-22T14:36:06.612Z,95564.03
2023-12-22T14:38:33.181Z,95557.53
2023-12-22T14:40:59.681Z,95564.28
2023-12-22T14:43:26.145Z,95562.47
2023-12-22T14:45:52.643Z,95563.75
2023-12-22T14:48:19.214Z,95575.88
2023-12-22T14:50:45.749Z,95567.38
2023-12-22T14:53:13.748Z,95572.34
2023-12-22T14:55:40.678Z,95574.50
2023-12-22T14:58:07.287Z,95576.75
2023-12-22T15:00:33.833Z,95572.84
2023-12-22T15:03:00.450Z,95569.97
2023-12-22T15:05:27.069Z,95577.88
2023-12-22T15:07:53.860Z,95573.25
2023-12-22T15:10:20.571Z,95572.22
2023-12-22T15:12:47.269Z,95574.28
2023-12-22T15:15:14.332Z,95576.56
2023-12-22T15:17:40.805Z,95568.31
2023-12-22T15:20:10.528Z,95572.22
2023-12-22T15:22:39.042Z,95578.50
2023-12-22T15:25:05.777Z,95587.59
2023-12-22T15:27:32.233Z,95587.78
2023-12-22T15:29:59.046Z,95576.03
2023-12-22T15:32:25.749Z,95584.06
2023-12-22T15:34:52.391Z,95584.38
2023-12-22T15:37:19.020Z,95580.28
2023-12-22T15:39:45.599Z,95590.59
2023-12-22T15:42:12.381Z,95596.88
2023-12-22T15:44:42.213Z,95605.09
2023-12-22T15:47:09.365Z,95605.59
2023-12-22T15:49:38.815Z,95603.41
2023-12-22T15:52:05.467Z,95618.00
2023-12-22T15:54:31.971Z,95621.63
2023-12-22T15:56:58.453Z,95629.06
2023-12-22T15:59:25.022Z,95628.56
2023-12-22T16:01:51.473Z,95628.00
2023-12-22T16:04:18.032Z,95628.91
2023-12-22T16:06:44.544Z,95634.41
2023-12-22T16:09:11.019Z,95639.84
2023-12-22T16:11:49.041Z,95631.63
2023-12-22T16:14:15.846Z,95631.00
2023-12-22T16:16:42.463Z,95633.78
2023-12-22T16:19:11.466Z,95626.59
2023-12-22T16:21:41.927Z,95633.06
2023-12-22T16:24:08.526Z,95643.25
2023-12-22T16:26:35.096Z,95627.78
2023-12-22T16:29:01.616Z,95628.69
2023-12-22T16:31:28.317Z,95624.22
2023-12-22T16:33:54.883Z,95614.97
2023-12-22T16:36:21.435Z,95631.69
2023-12-22T16:38:47.929Z,95635.00
2023-12-22T16:41:14.602Z,95642.75
2023-12-22T16:43:41.789Z,95651.41
2023-12-22T16:46:08.648Z,95653.44
2023-12-22T16:48:35.211Z,95662.53
2023-12-22T16:51:02.818Z,95666.09
2023-12-22T16:53:29.991Z,95657.47
2023-12-22T16:55:56.768Z,95671.91
2023-12-22T16:58:23.422Z,95665.06
2023-12-22T17:01:13.987Z,95657.97
2023-12-22T17:03:37.689Z,95656.00
2023-12-22T17:06:05.576Z,95666.59
2023-12-22T17:08:32.869Z,95670.50
2023-12-22T17:10:59.844Z,95671.34
2023-12-22T17:13:26.483Z,95673.97
2023-12-22T17:15:53.163Z,95682.16
2023-12-22T17:18:19.979Z,95672.06
2023-12-22T17:20:52.750Z,95677.59
2023-12-22T17:23:25.617Z,95677.09
2023-12-22T17:28:19.907Z,95693.78
2023-12-22T17:30:46.553Z,95711.81
2023-12-22T17:33:13.336Z,95711.81
2023-12-22T17:35:39.980Z,95712.00
2023-12-22T17:38:08.784Z,95719.28
2023-12-22T17:40:36.138Z,95722.84
2023-12-22T17:43:02.834Z,95726.22
2023-12-22T17:45:29.282Z,95717.97
2023-12-22T17:47:56.055Z,95717.69
2023-12-22T17:50:22.606Z,95725.56
2023-12-22T17:52:49.054Z,95711.06
2023-12-22T17:55:15.550Z,95693.84
2023-12-22T17:57:42.007Z,95709.28
2023-12-22T18:00:09.096Z,95714.69
2023-12-22T18:02:35.550Z,95713.88
2023-12-22T18:05:02.154Z,95718.25
2023-12-22T18:07:28.793Z,95717.00
2023-12-22T18:09:57.307Z,95720.13
2023-12-22T18:12:23.712Z,95724.41
2023-12-22T18:14:50.299Z,95727.81
2023-12-22T18:17:16.943Z,95737.22
2023-12-22T18:19:43.574Z,95733.50
2023-12-22T18:22:10.051Z,95745.34
2023-12-22T18:24:36.511Z,95751.63
2023-12-22T18:27:03.089Z,95759.16
2023-12-22T18:29:29.576Z,95775.94
2023-12-22T18:31:56.006Z,95775.63
2023-12-22T18:34:22.684Z,95787.34
2023-12-22T18:36:49.204Z,95809.84
2023-12-22T18:39:15.689Z,95810.28
2023-12-22T18:41:42.253Z,95820.94
2023-12-22T18:44:08.915Z,95829.66
2023-12-22T18:46:35.556Z,95819.63
2023-12-22T18:49:02.307Z,95829.31
2023-12-22T18:51:28.800Z,95832.69
2023-12-22T18:53:55.281Z,95838.06
2023-12-22T18:56:23.392Z,95840.63
2023-12-22T18:58:50.596Z,95851.97
2023-12-22T19:01:26.245Z,95853.41
2023-12-22T19:04:01.988Z,95846.81
2023-12-22T19:06:28.689Z,95853.19
2023-12-22T19:08:55.204Z,95853.34
2023-12-22T19:11:21.761Z,95858.88
2023-12-22T19:13:48.353Z,95860.09
2023-12-22T19:16:14.966Z,95867.69
2023-12-22T19:18:41.503Z,95875.47
2023-12-22T19:21:07.979Z,95877.72
2023-12-22T19:23:34.475Z,95880.81
2023-12-22T19:26:01.022Z,95881.00
2023-12-22T19:28:27.576Z,95881.69
2023-12-22T19:30:54.337Z,95879.97
2023-12-22T19:33:20.969Z,95871.25
2023-12-22T19:35:47.551Z,95880.25
2023-12-22T19:38:13.995Z,95880.78
2023-12-22T19:40:40.549Z,95891.75
2023-12-22T19:43:06.950Z,95882.13
2023-12-22T19:45:33.382Z,95894.44
2023-12-22T19:48:00.600Z,95890.00
2023-12-22T19:50:27.469Z,95884.69
2023-12-22T19:52:54.004Z,95892.34
2023-12-22T19:55:23.214Z,95884.69
2023-12-22T19:57:51.659Z,95897.88
2023-12-22T20:00:18.619Z,95892.78
2023-12-22T20:02:45.275Z,95889.03
2023-12-22T20:05:12.067Z,95901.06
2023-12-22T20:07:40.136Z,95898.16
2023-12-22T20:10:07.303Z,95911.16
2023-12-22T20:12:33.814Z,95908.44
2023-12-22T20:15:01.501Z,95911.56
2023-12-22T20:17:27.965Z,95918.88
2023-12-22T20:19:54.540Z,95931.44
2023-12-22T20:22:21.134Z,95925.88
2023-12-22T20:24:47.773Z,95921.50
2023-12-22T20:27:14.388Z,95928.91
2023-12-22T20:29:40.742Z,95919.50
2023-12-22T20:32:07.321Z,95922.31
2023-12-22T20:34:33.845Z,95925.47
2023-12-22T20:37:00.314Z,95928.25
2023-12-22T20:39:26.721Z,95921.63
2023-12-22T20:41:53.114Z,95921.84
2023-12-22T20:44:19.566Z,95923.09
2023-12-22T20:46:46.044Z,95915.91
2023-12-22T20:49:12.419Z,95915.81
2023-12-22T20:51:42.209Z,95913.44
2023-12-22T20:54:08.898Z,95917.09
2023-12-22T20:56:35.430Z,95915.84
2023-12-22T20:59:02.055Z,95916.44
2023-12-22T21:01:28.772Z,95919.34
2023-12-22T21:03:55.387Z,95925.53
2023-12-22T21:06:22.020Z,95929.75
2023-12-22T21:08:48.683Z,95926.66
2023-12-22T21:11:22.602Z,95933.06
2023-12-22T21:13:49.435Z,95923.38
2023-12-22T21:16:16.127Z,95939.84
2023-12-22T21:18:42.799Z,95937.44
2023-12-22T21:21:09.512Z,95937.41
2023-12-22T21:23:36.460Z,95933.91
2023-12-22T21:26:03.231Z,95933.72
2023-12-22T21:28:29.782Z,95934.59
2023-12-22T21:30:56.367Z,95941.41
2023-12-22T21:33:23.051Z,95944.44
2023-12-22T21:35:50.200Z,95940.47
2023-12-22T21:38:16.917Z,95942.22
2023-12-22T21:40:43.605Z,95949.97
2023-12-22T21:43:10.313Z,95952.66
2023-12-22T21:45:38.388Z,95941.66
2023-12-22T21:48:06.572Z,95944.38
2023-12-22T21:50:33.087Z,95958.31
2023-12-22T21:52:59.576Z,95956.31
2023-12-22T21:55:26.092Z,95949.97
2023-12-22T21:57:52.914Z,95954.91
2023-12-22T22:00:20.129Z,95950.09
2023-12-22T22:02:46.623Z,95948.88
2023-12-22T22:05:13.436Z,95953.22
2023-12-22T22:07:40.146Z,95949.41
2023-12-22T22:10:07.007Z,95956.03
2023-12-22T22:12:33.463Z,95945.44
2023-12-22T22:14:59.988Z,95949.38
2023-12-22T22:17:26.581Z,95959.78
2023-12-22T22:19:53.044Z,95961.06
2023-12-22T22:22:20.458Z,95959.41
2023-12-22T22:24:46.924Z,95968.34
2023-12-22T22:27:13.340Z,95960.50
2023-12-22T22:29:41.786Z,95976.66
2023-12-22T22:32:08.224Z,95962.09
2023-12-22T22:34:34.704Z,95963.56
2023-12-22T22:37:01.145Z,95959.09
2023-12-22T22:39:28.687Z,95964.88
2023-12-22T22:41:55.763Z,95963.22
2023-12-22T22:44:22.229Z,95965.63
2023-12-22T22:46:48.670Z,95975.31
2023-12-22T22:49:17.901Z,95976.91
2023-12-22T22:51:44.589Z,95985.50
2023-12-22T22:54:11.502Z,95985.09
2023-12-22T22:56:41.083Z,95985.72
2023-12-22T22:59:09.246Z,95974.16
2023-12-22T23:01:35.963Z,95985.81
2023-12-22T23:04:02.703Z,95980.25
2023-12-22T23:06:29.513Z,95981.66
2023-12-22T23:08:56.716Z,95989.03
2023-12-22T23:11:24.100Z,95991.59
2023-12-22T23:13:50.804Z,95987.75
2023-12-22T23:16:17.667Z,95986.00
2023-12-22T23:18:44.235Z,95975.94
2023-12-22T23:21:11.092Z,95983.38
2023-12-22T23:23:37.665Z,95981.59
2023-12-22T23:26:04.442Z,95976.22
2023-12-22T23:28:31.126Z,95973.06
2023-12-22T23:30:57.671Z,95969.03
2023-12-22T23:33:24.301Z,95959.91
2023-12-22T23:35:50.891Z,95977.47
2023-12-22T23:38:18.684Z,95977.78
2023-12-22T23:40:45.374Z,95983.97
2023-12-22T23:43:11.986Z,95984.91
2023-12-22T23:45:38.536Z,95979.03
2023-12-22T23:48:05.497Z,95975.44
2023-12-22T23:50:32.113Z,95980.06
2023-12-22T23:52:58.751Z,95990.31
2023-12-22T23:55:25.395Z,95992.41
2023-12-22T23:57:52.408Z,95996.84
